createdAt,value
2023-04-24T00:01:22.782Z,8.70
2023-04-24T00:03:49.687Z,8.70
2023-04-24T00:06:17.954Z,8.70
2023-04-24T00:08:45.079Z,8.60
2023-04-24T00:11:11.857Z,8.60
2023-04-24T00:13:39.064Z,8.60
2023-04-24T00:16:06.355Z,8.50
2023-04-24T00:18:33.167Z,8.60
2023-04-24T00:21:00.000Z,8.50
2023-04-24T00:23:26.780Z,8.50
2023-04-24T00:25:53.453Z,8.50
2023-04-24T00:28:20.246Z,8.50
2023-04-24T00:30:47.004Z,8.40
2023-04-24T00:33:13.774Z,8.40
2023-04-24T00:35:40.947Z,8.40
2023-04-24T00:38:08.192Z,8.30
2023-04-24T00:40:34.979Z,8.40
2023-04-24T00:43:01.721Z,8.40
2023-04-24T00:45:28.753Z,8.30
2023-04-24T00:47:55.568Z,8.30
2023-04-24T00:50:22.960Z,8.20
2023-04-24T00:52:50.079Z,8.30
2023-04-24T00:55:17.062Z,8.30
2023-04-24T00:57:44.985Z,8.20
2023-04-24T01:00:13.107Z,8.20
2023-04-24T01:02:47.504Z,8.20
2023-04-24T01:05:16.025Z,8.20
2023-04-24T01:07:46.528Z,8.20
2023-04-24T01:10:14.885Z,8.20
2023-04-24T01:12:42.191Z,8.20
2023-04-24T01:15:09.804Z,8.20
2023-04-24T01:17:36.976Z,8.20
2023-04-24T01:20:06.667Z,8.20
2023-04-24T01:22:36.629Z,8.20
2023-04-24T01:25:04.644Z,8.20
2023-04-24T01:27:31.656Z,8.20
2023-04-24T01:29:58.746Z,8.20
2023-04-24T01:32:26.692Z,8.20
2023-04-24T01:34:53.888Z,8.20
2023-04-24T01:37:20.601Z,8.20
2023-04-24T01:39:47.540Z,8.20
2023-04-24T01:42:15.602Z,8.20
2023-04-24T01:44:43.042Z,8.20
2023-04-24T01:47:10.064Z,8.10
2023-04-24T01:49:37.642Z,8.10
2023-04-24T01:52:04.351Z,8.10
2023-04-24T01:54:31.267Z,8.10
2023-04-24T01:56:58.148Z,8.00
2023-04-24T01:59:26.362Z,8.00
2023-04-24T02:01:53.122Z,7.90
2023-04-24T02:04:20.109Z,7.90
2023-04-24T02:06:46.956Z,7.90
2023-04-24T02:09:13.702Z,7.90
2023-04-24T02:11:40.404Z,7.80
2023-04-24T02:14:07.240Z,7.90
2023-04-24T02:16:34.224Z,7.80
2023-04-24T02:19:01.139Z,7.80
2023-04-24T02:21:28.677Z,7.80
2023-04-24T02:23:55.597Z,7.80
2023-04-24T02:26:22.482Z,7.80
2023-04-24T02:28:49.575Z,7.80
2023-04-24T02:31:16.383Z,7.80
2023-04-24T02:33:43.096Z,7.80
2023-04-24T02:36:09.887Z,7.80
2023-04-24T02:38:36.617Z,7.80
2023-04-24T02:41:07.069Z,7.80
2023-04-24T02:43:34.531Z,7.70
2023-04-24T02:46:01.489Z,7.70
2023-04-24T02:48:28.339Z,7.70
2023-04-24T02:50:55.133Z,7.70
2023-04-24T02:53:21.892Z,7.70
2023-04-24T02:55:48.622Z,7.70
2023-04-24T02:58:15.395Z,7.70
2023-04-24T03:00:42.149Z,7.70
2023-04-24T03:03:09.082Z,7.70
2023-04-24T03:05:36.091Z,7.60
2023-04-24T03:08:02.873Z,7.60
2023-04-24T03:10:29.610Z,7.60
2023-04-24T03:12:56.326Z,7.60
2023-04-24T03:15:23.203Z,7.50
2023-04-24T03:17:50.028Z,7.50
2023-04-24T03:20:16.986Z,7.50
2023-04-24T03:22:43.865Z,7.50
2023-04-24T03:25:10.797Z,7.50
2023-04-24T03:27:38.329Z,7.50
2023-04-24T03:30:05.528Z,7.50
2023-04-24T03:32:33.323Z,7.50
2023-04-24T03:35:00.325Z,7.50
2023-04-24T03:37:27.539Z,7.60
2023-04-24T03:39:54.324Z,7.70
2023-04-24T03:42:21.092Z,7.80
2023-04-24T03:44:47.818Z,7.80
2023-04-24T03:47:14.598Z,7.80
2023-04-24T03:49:41.491Z,7.90
2023-04-24T03:52:08.317Z,7.80
2023-04-24T03:54:35.135Z,7.90
2023-04-24T03:57:02.456Z,7.90
2023-04-24T03:59:29.250Z,7.90
2023-04-24T04:01:56.188Z,7.90
2023-04-24T04:04:23.158Z,7.90
2023-04-24T04:06:49.968Z,8.00
2023-04-24T04:09:16.787Z,8.10
2023-04-24T04:11:43.631Z,8.20
2023-04-24T04:14:10.443Z,8.20
2023-04-24T04:16:37.587Z,8.30
2023-04-24T04:19:04.613Z,8.20
2023-04-24T04:21:32.318Z,8.20
2023-04-24T04:23:59.090Z,8.20
2023-04-24T04:26:26.566Z,8.20
2023-04-24T04:28:54.021Z,8.10
2023-04-24T04:31:22.114Z,8.10
2023-04-24T04:33:48.987Z,8.10
2023-04-24T04:36:15.783Z,8.10
2023-04-24T04:38:44.093Z,8.10
2023-04-24T04:41:11.765Z,8.10
2023-04-24T04:43:40.623Z,8.20
2023-04-24T04:46:09.436Z,8.10
2023-04-24T04:48:36.333Z,8.20
2023-04-24T04:51:03.163Z,8.20
2023-04-24T04:53:30.037Z,8.20
2023-04-24T04:55:56.732Z,8.20
2023-04-24T04:58:23.575Z,8.20
2023-04-24T05:00:50.425Z,8.30
2023-04-24T05:03:21.243Z,8.30
2023-04-24T05:05:48.735Z,8.30
2023-04-24T05:10:45.220Z,8.30
2023-04-24T05:13:13.995Z,8.30
2023-04-24T05:15:41.082Z,8.40
2023-04-24T05:18:07.944Z,8.40
2023-04-24T05:20:34.786Z,8.40
2023-04-24T05:23:01.542Z,8.40
2023-04-24T05:25:31.235Z,8.50
2023-04-24T05:27:57.960Z,8.50
2023-04-24T05:30:24.757Z,8.60
2023-04-24T05:32:51.449Z,8.60
2023-04-24T05:35:19.733Z,8.60
2023-04-24T05:37:46.677Z,8.60
2023-04-24T05:40:13.515Z,8.70
2023-04-24T05:42:40.384Z,8.80
2023-04-24T05:45:07.813Z,8.80
2023-04-24T05:47:34.602Z,8.90
2023-04-24T05:50:01.415Z,8.90
2023-04-24T05:52:28.102Z,8.90
2023-04-24T05:54:54.799Z,8.00
2023-04-24T05:57:21.571Z,7.40
2023-04-24T05:59:48.300Z,7.00
2023-04-24T06:02:15.169Z,6.60
2023-04-24T06:04:42.691Z,6.60
2023-04-24T06:07:10.485Z,6.60
2023-04-24T06:09:37.610Z,6.70
2023-04-24T06:12:04.571Z,6.60
2023-04-24T06:14:31.393Z,6.60
2023-04-24T06:16:58.179Z,6.80
2023-04-24T06:19:24.988Z,6.70
2023-04-24T06:21:51.678Z,6.70
2023-04-24T06:24:18.423Z,6.80
2023-04-24T06:26:45.560Z,6.90
2023-04-24T06:29:12.333Z,7.00
2023-04-24T06:31:39.218Z,7.10
2023-04-24T06:34:06.024Z,7.20
2023-04-24T06:36:35.538Z,7.30
2023-04-24T06:39:02.759Z,7.50
2023-04-24T06:41:30.326Z,7.60
2023-04-24T06:43:57.016Z,7.70
2023-04-24T06:46:26.844Z,7.90
2023-04-24T06:48:57.914Z,8.20
2023-04-24T06:51:25.775Z,8.20
2023-04-24T06:53:54.176Z,8.20
2023-04-24T06:56:21.317Z,8.30
2023-04-24T06:58:48.109Z,8.30
2023-04-24T07:01:15.024Z,8.30
2023-04-24T07:03:41.949Z,8.30
2023-04-24T07:06:09.235Z,8.40
2023-04-24T07:08:36.850Z,8.50
2023-04-24T07:11:04.048Z,8.40
2023-04-24T07:13:30.979Z,8.50
2023-04-24T07:15:57.836Z,8.60
2023-04-24T07:18:24.983Z,8.70
2023-04-24T07:20:51.887Z,9.00
2023-04-24T07:23:19.725Z,9.00
2023-04-24T07:25:46.587Z,9.00
2023-04-24T07:28:13.643Z,9.10
2023-04-24T07:30:40.365Z,9.10
2023-04-24T07:33:07.874Z,9.20
2023-04-24T07:35:35.429Z,9.40
2023-04-24T07:38:02.287Z,9.50
2023-04-24T07:40:29.124Z,9.70
2023-04-24T07:42:56.120Z,9.40
2023-04-24T07:45:24.379Z,9.10
2023-04-24T07:47:51.974Z,9.00
2023-04-24T07:50:18.815Z,8.90
2023-04-24T07:52:45.657Z,8.90
2023-04-24T07:55:12.414Z,9.20
2023-04-24T07:57:39.195Z,10.00
2023-04-24T08:00:06.824Z,10.70
2023-04-24T08:02:33.848Z,11.00
2023-04-24T08:05:00.975Z,11.30
2023-04-24T08:07:27.895Z,11.30
2023-04-24T08:09:54.952Z,10.80
2023-04-24T08:12:21.735Z,10.40
2023-04-24T08:14:48.530Z,10.30
2023-04-24T08:17:15.351Z,10.40
2023-04-24T08:19:48.465Z,10.30
2023-04-24T08:22:16.400Z,10.60
2023-04-24T08:24:43.250Z,10.70
2023-04-24T08:27:10.352Z,10.40
2023-04-24T08:29:37.554Z,10.40
2023-04-24T08:32:04.468Z,10.50
2023-04-24T08:34:31.298Z,10.20
2023-04-24T08:36:58.039Z,10.00
2023-04-24T08:39:24.836Z,9.70
2023-04-24T08:41:53.542Z,9.40
2023-04-24T08:44:21.111Z,9.20
2023-04-24T08:46:49.600Z,8.90
2023-04-24T08:49:19.395Z,8.30
2023-04-24T08:51:48.317Z,8.10
2023-04-24T08:54:15.157Z,8.20
2023-04-24T08:56:45.752Z,8.40
2023-04-24T08:59:13.324Z,8.80
2023-04-24T09:01:41.850Z,9.40
2023-04-24T09:04:13.323Z,9.80
2023-04-24T09:06:41.204Z,9.80
2023-04-24T09:09:09.290Z,10.40
2023-04-24T09:11:37.536Z,10.40
2023-04-24T09:14:05.495Z,11.00
2023-04-24T09:16:35.944Z,11.40
2023-04-24T09:19:04.250Z,11.60
2023-04-24T09:21:36.741Z,12.00
2023-04-24T09:24:06.864Z,11.70
2023-04-24T09:26:38.033Z,11.60
2023-04-24T09:29:05.648Z,12.10
2023-04-24T09:31:32.545Z,12.10
2023-04-24T09:34:02.275Z,11.80
2023-04-24T09:36:38.064Z,11.50
2023-04-24T09:39:06.657Z,10.90
2023-04-24T09:41:34.281Z,10.80
2023-04-24T09:44:23.607Z,11.70
2023-04-24T09:46:52.433Z,12.40
2023-04-24T09:49:25.024Z,12.70
2023-04-24T09:51:52.376Z,13.20
2023-04-24T09:54:25.849Z,13.10
2023-04-24T09:56:52.770Z,13.20
2023-04-24T09:59:20.859Z,13.50
2023-04-24T10:01:49.699Z,13.80
2023-04-24T10:04:25.323Z,14.10
2023-04-24T10:06:53.757Z,13.90
2023-04-24T10:09:23.819Z,13.80
2023-04-24T10:11:54.368Z,13.90
2023-04-24T10:14:26.159Z,13.40
2023-04-24T10:16:55.854Z,12.80
2023-04-24T10:19:24.679Z,12.20
2023-04-24T10:21:51.433Z,12.00
2023-04-24T10:24:19.453Z,11.60
2023-04-24T10:26:49.184Z,11.40
2023-04-24T10:29:18.243Z,11.90
2023-04-24T10:31:48.402Z,12.80
2023-04-24T10:34:17.734Z,13.40
2023-04-24T10:36:49.184Z,14.10
2023-04-24T10:39:17.002Z,14.40
2023-04-24T10:41:43.930Z,14.40
2023-04-24T10:44:16.557Z,14.30
2023-04-24T10:46:49.343Z,14.70
2023-04-24T10:49:16.070Z,14.60
2023-04-24T10:51:50.737Z,13.40
2023-04-24T10:54:28.659Z,12.80
2023-04-24T10:57:24.353Z,11.90
2023-04-24T11:00:13.377Z,11.50
2023-04-24T11:02:44.662Z,11.80
2023-04-24T11:05:12.056Z,11.70
2023-04-24T11:08:14.955Z,12.00
2023-04-24T11:10:55.020Z,12.40
2023-04-24T11:13:26.779Z,12.70
2023-04-24T11:16:23.309Z,12.60
2023-04-24T11:19:01.082Z,12.30
2023-04-24T11:21:33.654Z,12.00
2023-04-24T11:24:20.947Z,11.50
2023-04-24T11:26:48.801Z,11.20
2023-04-24T11:29:18.012Z,11.60
2023-04-24T11:31:51.010Z,12.00
2023-04-24T11:34:18.650Z,11.90
2023-04-24T11:36:48.842Z,12.70
2023-04-24T11:39:16.210Z,13.30
2023-04-24T11:41:43.163Z,13.90
2023-04-24T11:44:14.227Z,14.20
2023-04-24T11:46:41.294Z,14.70
2023-04-24T11:49:08.482Z,13.80
2023-04-24T11:51:47.870Z,13.80
2023-04-24T11:54:19.620Z,13.80
2023-04-24T11:56:48.627Z,13.50
2023-04-24T11:59:15.660Z,13.90
2023-04-24T12:01:49.819Z,14.10
2023-04-24T12:04:18.271Z,13.90
2023-04-24T12:07:04.671Z,13.30
2023-04-24T12:09:42.611Z,12.70
2023-04-24T12:12:11.272Z,12.80
2023-04-24T12:14:55.854Z,13.10
2023-04-24T12:17:31.928Z,13.50
2023-04-24T12:20:04.221Z,13.50
2023-04-24T12:22:47.946Z,12.90
2023-04-24T12:25:16.820Z,12.40
2023-04-24T12:27:45.246Z,12.10
2023-04-24T12:30:17.434Z,12.00
2023-04-24T12:32:46.416Z,12.00
2023-04-24T12:35:13.709Z,12.10
2023-04-24T12:37:45.827Z,12.00
2023-04-24T12:40:14.708Z,11.80
2023-04-24T12:42:52.395Z,11.50
2023-04-24T12:45:20.310Z,11.60
2023-04-24T12:47:47.592Z,11.70
2023-04-24T12:50:16.784Z,11.80
2023-04-24T12:52:44.360Z,12.10
2023-04-24T12:55:12.877Z,12.20
2023-04-24T12:57:40.960Z,12.10
2023-04-24T13:00:09.488Z,11.80
2023-04-24T13:02:36.591Z,12.00
2023-04-24T13:05:03.909Z,11.70
2023-04-24T13:07:30.863Z,11.50
2023-04-24T13:09:58.778Z,11.40
2023-04-24T13:12:26.628Z,11.40
2023-04-24T13:14:54.148Z,11.00
2023-04-24T13:17:21.215Z,11.00
2023-04-24T13:19:51.155Z,10.90
2023-04-24T13:22:19.759Z,11.20
2023-04-24T13:24:46.564Z,11.40
2023-04-24T13:27:13.305Z,11.80
2023-04-24T13:29:40.055Z,12.10
2023-04-24T13:32:07.401Z,12.10
2023-04-24T13:34:35.520Z,12.30
2023-04-24T13:37:04.661Z,12.00
2023-04-24T13:39:32.022Z,11.60
2023-04-24T13:41:59.580Z,11.30
2023-04-24T13:44:26.819Z,11.10
2023-04-24T13:46:57.711Z,10.90
2023-04-24T13:49:26.400Z,10.90
2023-04-24T13:51:54.207Z,11.00
2023-04-24T13:54:21.187Z,11.60
2023-04-24T13:56:47.937Z,12.10
2023-04-24T13:59:14.705Z,12.30
2023-04-24T14:01:41.566Z,12.70
2023-04-24T14:04:08.496Z,13.50
2023-04-24T14:06:35.362Z,13.90
2023-04-24T14:09:02.063Z,12.80
2023-04-24T14:11:28.948Z,12.40
2023-04-24T14:13:57.430Z,12.50
2023-04-24T14:16:24.268Z,12.30
2023-04-24T14:18:51.284Z,12.00
2023-04-24T14:21:18.002Z,11.70
2023-04-24T14:23:45.505Z,11.50
2023-04-24T14:26:12.503Z,11.50
2023-04-24T14:28:39.480Z,11.20
2023-04-24T14:31:06.285Z,11.10
2023-04-24T14:33:33.043Z,10.80
2023-04-24T14:35:59.801Z,10.70
2023-04-24T14:38:26.572Z,10.60
2023-04-24T14:41:06.127Z,10.70
2023-04-24T14:43:36.267Z,10.80
2023-04-24T14:46:04.456Z,10.70
2023-04-24T14:48:31.586Z,10.80
2023-04-24T14:50:58.540Z,10.80
2023-04-24T14:53:25.305Z,10.80
2023-04-24T14:55:52.069Z,10.70
2023-04-24T14:58:19.058Z,10.70
2023-04-24T15:00:45.856Z,10.50
2023-04-24T15:03:12.712Z,10.20
2023-04-24T15:05:39.917Z,10.20
2023-04-24T15:08:06.785Z,10.10
2023-04-24T15:10:33.970Z,10.00
2023-04-24T15:13:01.032Z,10.00
2023-04-24T15:15:27.839Z,9.90
2023-04-24T15:17:54.611Z,9.60
2023-04-24T15:20:21.514Z,9.50
2023-04-24T15:22:48.270Z,9.30
2023-04-24T15:25:14.987Z,9.30
2023-04-24T15:27:45.979Z,9.20
2023-04-24T15:30:14.189Z,9.40
2023-04-24T15:32:41.399Z,9.40
2023-04-24T15:35:10.051Z,9.60
2023-04-24T15:37:38.955Z,9.70
2023-04-24T15:40:08.155Z,9.80
2023-04-24T15:42:36.189Z,9.90
2023-04-24T15:45:04.373Z,10.00
2023-04-24T15:47:31.420Z,9.90
2023-04-24T15:49:58.973Z,9.60
2023-04-24T15:52:25.919Z,9.50
2023-04-24T15:54:52.771Z,9.50
2023-04-24T15:57:19.602Z,9.60
2023-04-24T15:59:46.626Z,9.90
2023-04-24T16:02:19.280Z,10.10
2023-04-24T16:04:50.846Z,10.10
2023-04-24T16:07:20.557Z,10.00
2023-04-24T16:09:47.500Z,10.00
2023-04-24T16:12:14.809Z,10.10
2023-04-24T16:14:41.782Z,10.10
2023-04-24T16:17:08.602Z,10.20
2023-04-24T16:19:35.433Z,10.20
2023-04-24T16:22:03.368Z,10.00
2023-04-24T16:24:30.357Z,9.80
2023-04-24T16:26:57.577Z,9.80
2023-04-24T16:29:24.649Z,9.60
2023-04-24T16:31:51.595Z,9.70
2023-04-24T16:34:18.429Z,9.60
2023-04-24T16:36:45.469Z,9.60
2023-04-24T16:39:13.112Z,9.60
2023-04-24T16:41:40.378Z,9.70
2023-04-24T16:44:07.325Z,9.70
2023-04-24T16:46:35.218Z,9.70
2023-04-24T16:49:02.169Z,9.70
2023-04-24T16:51:29.047Z,9.70
2023-04-24T16:53:56.025Z,9.60
2023-04-24T16:56:23.062Z,9.60
2023-04-24T16:58:50.471Z,9.60
2023-04-24T17:01:17.605Z,9.50
2023-04-24T17:03:44.967Z,9.50
2023-04-24T17:06:12.614Z,9.40
2023-04-24T17:08:39.419Z,9.40
2023-04-24T17:11:06.164Z,9.40
2023-04-24T17:13:33.132Z,9.50
2023-04-24T17:16:00.005Z,9.50
2023-04-24T17:18:27.298Z,9.50
2023-04-24T17:20:54.138Z,9.60
2023-04-24T17:23:21.272Z,9.60
2023-04-24T17:25:48.558Z,9.50
2023-04-24T17:28:30.413Z,9.30
2023-04-24T17:31:00.394Z,9.20
2023-04-24T17:33:28.480Z,9.10
2023-04-24T17:35:55.891Z,9.00
2023-04-24T17:38:22.700Z,8.90
2023-04-24T17:40:52.917Z,8.90
2023-04-24T17:43:20.675Z,8.90
2023-04-24T17:45:51.361Z,8.80
2023-04-24T17:48:22.309Z,8.70
2023-04-24T17:50:49.738Z,8.70
2023-04-24T17:53:16.562Z,8.60
2023-04-24T17:55:49.148Z,8.60
2023-04-24T17:58:16.080Z,8.40
2023-04-24T18:00:42.790Z,8.40
2023-04-24T18:03:10.512Z,8.30
2023-04-24T18:05:39.009Z,8.10
2023-04-24T18:08:06.194Z,8.00
2023-04-24T18:10:35.408Z,7.90
2023-04-24T18:13:03.297Z,7.90
2023-04-24T18:15:30.169Z,7.80
2023-04-24T18:17:56.959Z,7.70
2023-04-24T18:20:23.700Z,7.60
2023-04-24T18:22:50.687Z,7.50
2023-04-24T18:25:17.829Z,7.30
2023-04-24T18:27:44.588Z,7.20
2023-04-24T18:30:14.510Z,7.20
2023-04-24T18:32:42.163Z,7.00
2023-04-24T18:35:09.937Z,7.00
2023-04-24T18:37:36.674Z,6.90
2023-04-24T18:40:03.826Z,6.80
2023-04-24T18:42:30.814Z,6.80
2023-04-24T18:45:01.459Z,6.70
2023-04-24T18:47:28.735Z,6.60
2023-04-24T18:49:55.713Z,6.60
2023-04-24T18:52:24.968Z,6.60
2023-04-24T18:54:52.095Z,6.50
2023-04-24T18:57:18.900Z,6.50
2023-04-24T18:59:45.747Z,6.60
2023-04-24T19:02:12.783Z,6.50
2023-04-24T19:04:39.680Z,6.50
2023-04-24T19:07:07.007Z,6.40
2023-04-24T19:09:34.060Z,6.40
2023-04-24T19:12:01.846Z,6.30
2023-04-24T19:14:28.861Z,6.20
2023-04-24T19:16:55.814Z,6.10
2023-04-24T19:19:23.808Z,6.10
2023-04-24T19:21:50.660Z,6.00
2023-04-24T19:24:19.092Z,6.00
2023-04-24T19:26:46.317Z,5.90
2023-04-24T19:29:13.230Z,5.80
2023-04-24T19:31:40.114Z,5.70
2023-04-24T19:34:06.964Z,5.60
2023-04-24T19:36:33.874Z,5.50
2023-04-24T19:39:00.945Z,5.50
2023-04-24T19:41:27.640Z,5.40
2023-04-24T19:43:54.419Z,5.30
2023-04-24T19:46:21.224Z,5.20
2023-04-24T19:48:48.325Z,5.20
2023-04-24T19:51:15.401Z,5.10
2023-04-24T19:53:43.513Z,5.20
2023-04-24T19:56:10.541Z,5.20
2023-04-24T19:58:37.368Z,5.10
2023-04-24T20:01:05.865Z,5.20
2023-04-24T20:03:34.038Z,5.10
2023-04-24T20:06:01.269Z,5.10
2023-04-24T20:08:28.006Z,5.10
2023-04-24T20:10:57.535Z,5.10
2023-04-24T20:13:25.494Z,5.00
2023-04-24T20:15:52.234Z,5.00
2023-04-24T20:18:19.379Z,5.00
2023-04-24T20:20:46.140Z,5.10
2023-04-24T20:23:13.006Z,5.10
2023-04-24T20:25:39.781Z,5.10
2023-04-24T20:28:06.551Z,5.10
2023-04-24T20:30:33.426Z,5.10
2023-04-24T20:33:00.294Z,5.10
2023-04-24T20:35:27.053Z,5.10
2023-04-24T20:37:54.229Z,5.10
2023-04-24T20:40:21.117Z,5.00
2023-04-24T20:42:47.907Z,5.00
2023-04-24T20:45:14.695Z,5.00
2023-04-24T20:47:41.538Z,4.90
2023-04-24T20:50:08.872Z,5.00
2023-04-24T20:52:35.802Z,5.00
2023-04-24T20:55:03.554Z,5.10
2023-04-24T20:57:30.849Z,5.10
2023-04-24T20:59:57.574Z,5.10
2023-04-24T21:02:24.391Z,5.00
2023-04-24T21:04:51.217Z,5.00
2023-04-24T21:07:18.034Z,5.10
2023-04-24T21:09:44.717Z,5.10
2023-04-24T21:12:11.484Z,5.10
2023-04-24T21:14:38.236Z,5.20
2023-04-24T21:17:05.002Z,5.20
2023-04-24T21:19:31.862Z,5.20
2023-04-24T21:21:58.547Z,5.20
2023-04-24T21:24:25.855Z,5.20
2023-04-24T21:26:52.731Z,5.20
2023-04-24T21:29:19.675Z,5.20
2023-04-24T21:31:46.446Z,5.20
2023-04-24T21:34:13.673Z,5.30
2023-04-24T21:36:40.507Z,5.30
2023-04-24T21:39:07.246Z,5.30
2023-04-24T21:41:34.164Z,5.30
2023-04-24T21:44:00.934Z,5.30
2023-04-24T21:46:27.773Z,5.20
2023-04-24T21:48:54.627Z,5.30
2023-04-24T21:51:21.373Z,5.20
2023-04-24T21:53:48.317Z,5.30
2023-04-24T21:56:15.493Z,5.30
2023-04-24T21:58:42.703Z,5.30
2023-04-24T22:01:09.836Z,5.30
2023-04-24T22:03:36.790Z,5.30
2023-04-24T22:06:03.869Z,5.30
2023-04-24T22:08:30.656Z,5.30
2023-04-24T22:10:57.500Z,5.20
2023-04-24T22:13:24.243Z,5.10
2023-04-24T22:15:51.074Z,5.10
2023-04-24T22:18:18.855Z,5.10
2023-04-24T22:20:46.646Z,5.20
2023-04-24T22:23:13.515Z,5.40
2023-04-24T22:25:40.387Z,5.60
2023-04-24T22:28:07.156Z,5.70
2023-04-24T22:30:34.063Z,5.70
2023-04-24T22:33:01.045Z,5.70
2023-04-24T22:35:27.801Z,5.70
2023-04-24T22:37:55.879Z,5.60
2023-04-24T22:40:23.363Z,5.50
2023-04-24T22:42:50.241Z,5.40
2023-04-24T22:45:17.602Z,5.30
2023-04-24T22:47:44.526Z,5.30
2023-04-24T22:50:11.406Z,5.20
2023-04-24T22:52:38.201Z,5.20
2023-04-24T22:55:05.337Z,5.10
2023-04-24T22:57:32.230Z,5.00
2023-04-24T22:59:58.973Z,4.90
2023-04-24T23:02:25.958Z,4.80
2023-04-24T23:04:54.302Z,4.70
2023-04-24T23:07:21.051Z,4.60
2023-04-24T23:09:47.768Z,4.60
2023-04-24T23:12:14.499Z,4.60
2023-04-24T23:14:41.350Z,4.60
2023-04-24T23:17:08.184Z,4.50
2023-04-24T23:19:35.072Z,4.50
2023-04-24T23:22:01.934Z,4.50
2023-04-24T23:24:28.733Z,4.50
2023-04-24T23:26:55.454Z,4.50
2023-04-24T23:29:23.261Z,4.50
2023-04-24T23:31:50.079Z,4.50
2023-04-24T23:34:18.771Z,4.50
2023-04-24T23:36:54.804Z,4.60
2023-04-24T23:39:21.968Z,4.70
2023-04-24T23:41:49.327Z,4.70
2023-04-24T23:44:16.174Z,4.70
2023-04-24T23:46:42.943Z,4.70
2023-04-24T23:49:09.686Z,4.70
2023-04-24T23:51:36.801Z,4.70
2023-04-24T23:54:04.182Z,4.70
2023-04-24T23:56:31.660Z,4.80
2023-04-24T23:58:58.417Z,4.80
